Time;durP1;ratioP1;P1;durP2;ratioP2;P2;SDS_P1;SDS_P2;PMS_P1;PMS_P2;Temp;Humidity;BMP_temperature;BMP_pressure;BME280_temperature;BME280_humidity;BME280_pressure;Samples;Min_cycle;Max_cycle;Signal;HPM_P1;HPM_P2
2023/11/16 00:07:28;;;;;;;;;;;6.40;99.90;;;;;;21092789;28;19916;-81
2023/11/16 00:17:29;;;;;;;;;;;6.30;99.90;;;;;;21089742;28;19916;-82
2023/11/16 00:27:30;;;;;;;;;;;6.00;99.90;;;;;;21088997;28;20149;-82
2023/11/16 00:37:30;;;;;;;;;;;5.60;99.90;;;;;;21088123;28;19916;-82
2023/11/16 00:47:31;;;;;;;;;;;5.60;99.90;;;;;;21085720;28;19962;-81
2023/11/16 00:57:32;;;;;;;;;;;5.40;99.90;;;;;;21068541;28;19938;-81
2023/11/16 01:07:33;;;;;;;;;;;5.50;99.90;;;;;;21085337;28;19912;-81
2023/11/16 01:17:36;;;;;;;;;;;5.50;99.90;;;;;;21084860;28;19915;-82
2023/11/16 01:27:38;;;;;;;;;;;5.60;99.90;;;;;;21083957;28;19912;-82
2023/11/16 01:37:39;;;;;;;;;;;5.80;99.90;;;;;;21082125;28;20011;-82
2023/11/16 01:47:40;;;;;;;;;;;6.00;99.90;;;;;;21089254;28;19912;-83
2023/11/16 01:57:40;;;;;;;;;;;6.00;99.90;;;;;;21069436;28;20363;-81
2023/11/16 02:07:42;;;;;;;;;;;6.00;99.90;;;;;;21084449;28;19912;-81
2023/11/16 02:17:43;;;;;;;;;;;6.00;99.90;;;;;;21070279;28;19916;-82
2023/11/16 02:27:44;;;;;;;;;;;5.90;99.90;;;;;;21085846;28;19919;-82
2023/11/16 02:37:44;;;;;;;;;;;6.00;99.90;;;;;;21102145;28;19922;-82
2023/11/16 02:47:46;;;;;;;;;;;6.00;99.90;;;;;;21100660;28;19919;-81
2023/11/16 02:57:46;;;;;;;;;;;6.10;99.90;;;;;;21099408;28;19923;-80
2023/11/16 03:07:52;;;;;;;;;;;6.00;99.90;;;;;;21081431;28;19951;-82
2023/11/16 03:17:56;;;;;;;;;;;6.00;99.90;;;;;;21098363;28;20391;-82
2023/11/16 03:27:57;;;;;;;;;;;5.90;99.90;;;;;;21078733;28;19912;-82
2023/11/16 03:37:57;;;;;;;;;;;5.90;99.90;;;;;;21093815;28;19943;-82
2023/11/16 03:47:58;;;;;;;;;;;5.90;99.90;;;;;;21092391;28;20028;-81
2023/11/16 03:57:59;;;;;;;;;;;5.80;99.90;;;;;;21090548;28;19916;-80
2023/11/16 04:08:00;;;;;;;;;;;5.60;99.90;;;;;;21090936;28;19919;-81
2023/11/16 04:18:03;;;;;;;;;;;5.60;99.90;;;;;;21087271;28;20004;-81
2023/11/16 04:28:05;;;;;;;;;;;5.70;99.90;;;;;;21087939;28;19920;-81
2023/11/16 04:38:09;;;;;;;;;;;5.70;99.90;;;;;;21085484;28;19920;-82
2023/11/16 04:48:11;;;;;;;;;;;5.70;99.90;;;;;;21084168;28;19919;-81
2023/11/16 04:58:11;;;;;;;;;;;5.70;99.90;;;;;;21089815;28;19916;-82
2023/11/16 05:08:12;;;;;;;;;;;5.70;99.90;;;;;;21073431;28;19919;-82
2023/11/16 05:18:13;;;;;;;;;;;5.70;99.90;;;;;;21089427;28;19916;-81
2023/11/16 05:28:14;;;;;;;;;;;5.60;99.90;;;;;;21072381;28;19919;-83
2023/11/16 05:38:17;;;;;;;;;;;5.50;99.90;;;;;;21143850;28;19915;-83
2023/11/16 05:48:18;;;;;;;;;;;5.30;99.90;;;;;;21091622;28;20310;-83
2023/11/16 05:58:18;;;;;;;;;;;5.30;99.90;;;;;;21083951;28;20477;-81
2023/11/16 06:08:20;;;;;;;;;;;5.20;99.90;;;;;;21082413;28;19927;-82
2023/11/16 06:18:23;;;;;;;;;;;5.10;99.90;;;;;;21080176;28;20015;-82
2023/11/16 06:28:24;;;;;;;;;;;4.70;99.90;;;;;;21081566;28;19912;-83
2023/11/16 06:38:30;;;;;;;;;;;4.90;99.90;;;;;;21060081;28;19916;-81
2023/11/16 06:48:31;;;;;;;;;;;5.00;99.90;;;;;;21060261;28;19961;-81
2023/11/16 06:58:32;;;;;;;;;;;4.90;99.90;;;;;;21077691;28;19917;-80
2023/11/16 07:08:32;;;;;;;;;;;4.90;99.90;;;;;;21098119;28;19924;-80
2023/11/16 07:18:34;;;;;;;;;;;4.90;99.90;;;;;;21097127;28;19939;-79
2023/11/16 07:28:38;;;;;;;;;;;4.90;99.90;;;;;;21092638;28;19924;-82
2023/11/16 07:38:40;;;;;;;;;;;4.90;99.90;;;;;;21091240;28;20287;-80
2023/11/16 07:48:41;;;;;;;;;;;4.90;99.90;;;;;;21090749;28;19919;-80
2023/11/16 07:58:48;;;;;;;;;;;5.20;99.90;;;;;;21088492;28;19916;-79
2023/11/16 08:08:52;;;;;;;;;;;5.40;99.90;;;;;;21094143;28;19912;-79
2023/11/16 08:18:53;;;;;;;;;;;5.40;99.90;;;;;;21091776;28;19966;-79
2023/11/16 08:28:54;;;;;;;;;;;5.30;99.90;;;;;;21091032;28;19980;-79
2023/11/16 08:38:55;;;;;;;;;;;5.60;99.90;;;;;;21088701;28;19920;-80
2023/11/16 08:48:56;;;;;;;;;;;5.80;99.90;;;;;;21094656;28;19916;-79
2023/11/16 08:58:58;;;;;;;;;;;5.90;99.90;;;;;;21075656;28;20474;-81
2023/11/16 09:09:09;;;;;;;;;;;6.10;99.90;;;;;;21090025;28;19912;-81
2023/11/16 09:19:10;;;;;;;;;;;6.20;99.90;;;;;;21087226;28;20382;-80
2023/11/16 09:29:12;;;;;;;;;;;6.00;99.90;;;;;;21083995;28;19943;-79
2023/11/16 09:39:14;;;;;;;;;;;6.00;99.90;;;;;;21083883;28;19977;-79
2023/11/16 09:49:16;;;;;;;;;;;5.90;99.90;;;;;;21086248;28;19912;-80
2023/11/16 09:59:27;;;;;;;;;;;5.80;99.90;;;;;;21083144;28;19916;-79
2023/11/16 10:09:33;;;;;;;;;;;5.80;99.90;;;;;;21088009;28;19965;-79
2023/11/16 10:19:34;;;;;;;;;;;6.10;99.90;;;;;;21084228;28;19916;-78
2023/11/16 10:29:35;;;;;;;;;;;6.20;99.90;;;;;;21084505;28;19920;-79
2023/11/16 10:39:37;;;;;;;;;;;6.50;99.90;;;;;;21087839;28;20354;-82
2023/11/16 10:49:38;;;;;;;;;;;6.50;99.90;;;;;;21100034;28;19981;-81
2023/11/16 10:59:44;;;;;;;;;;;6.40;99.90;;;;;;21099503;28;19916;-81
2023/11/16 11:09:47;;;;;;;;;;;6.50;99.90;;;;;;21100914;28;19912;-81
2023/11/16 11:19:54;;;;;;;;;;;7.00;99.90;;;;;;21102657;28;19923;-81
2023/11/16 11:29:56;;;;;;;;;;;7.20;99.90;;;;;;21104304;28;19912;-82
2023/11/16 11:39:57;;;;;;;;;;;7.00;99.90;;;;;;21108856;28;19917;-81
2023/11/16 11:50:00;;;;;;;;;;;6.90;99.90;;;;;;21185599;28;20006;-81
2023/11/16 12:00:00;;;;;;;;;;;7.10;99.90;;;;;;21162316;28;19923;-81
2023/11/16 12:10:01;;;;;;;;;;;7.30;99.90;;;;;;21098455;28;19971;-83
2023/11/16 12:20:02;;;;;;;;;;;7.40;99.90;;;;;;21093506;28;20439;-82
2023/11/16 12:30:03;;;;;;;;;;;7.30;99.90;;;;;;21099479;28;19912;-82
2023/11/16 12:40:16;;;;;;;;;;;7.30;99.90;;;;;;21096620;28;19916;-80
2023/11/16 12:50:16;;;;;;;;;;;7.30;99.90;;;;;;21096053;28;20003;-80
2023/11/16 13:00:18;;;;;;;;;;;7.30;99.90;;;;;;21097331;28;19923;-81
2023/11/16 13:10:19;;;;;;;;;;;7.30;99.90;;;;;;21098686;28;19920;-80
2023/11/16 13:20:20;;;;;;;;;;;7.30;99.90;;;;;;21095543;28;19916;-80
2023/11/16 13:30:20;;;;;;;;;;;7.20;99.90;;;;;;21087640;28;19912;-83
2023/11/16 13:40:21;;;;;;;;;;;7.00;99.90;;;;;;21084974;28;19923;-83
2023/11/16 13:50:22;;;;;;;;;;;7.00;99.90;;;;;;21083835;28;19912;-82
2023/11/16 14:00:28;;;;;;;;;;;7.50;99.90;;;;;;21161490;28;20311;-80
2023/11/16 14:10:29;;;;;;;;;;;8.60;99.90;;;;;;21147153;28;19911;-81
2023/11/16 14:20:30;;;;;;;;;;;9.40;99.90;;;;;;21145865;28;19916;-81
2023/11/16 14:30:31;;;;;;;;;;;8.50;99.90;;;;;;21085681;28;20371;-79
2023/11/16 14:40:33;;;;;;;;;;;9.00;99.90;;;;;;21082353;28;20336;-80
2023/11/16 14:50:34;;;;;;;;;;;9.30;99.90;;;;;;21083784;28;19912;-79
2023/11/16 15:00:35;;;;;;;;;;;8.30;99.90;;;;;;21069749;28;20410;-79
2023/11/16 15:10:37;;;;;;;;;;;7.70;99.90;;;;;;21065733;28;19939;-79
2023/11/16 15:20:40;;;;;;;;;;;7.40;99.90;;;;;;21080075;28;20045;-79
2023/11/16 15:30:42;;;;;;;;;;;7.30;99.90;;;;;;21091076;28;20399;-79
2023/11/16 15:40:47;;;;;;;;;;;7.30;99.90;;;;;;21081920;28;19964;-81
2023/11/16 15:50:52;;;;;;;;;;;7.30;99.90;;;;;;21075938;28;19973;-80
2023/11/16 16:00:53;;;;;;;;;;;7.20;99.90;;;;;;21091614;28;19916;-80
2023/11/16 16:10:54;;;;;;;;;;;7.20;99.90;;;;;;21091353;28;20424;-81
2023/11/16 16:20:54;;;;;;;;;;;7.20;99.90;;;;;;21093102;28;20386;-80
2023/11/16 16:30:55;;;;;;;;;;;7.20;99.90;;;;;;21090895;28;19912;-81
2023/11/16 16:40:56;;;;;;;;;;;7.20;99.90;;;;;;21093083;28;20417;-82
2023/11/16 16:50:57;;;;;;;;;;;7.20;99.90;;;;;;21094430;28;19966;-81
2023/11/16 17:00:58;;;;;;;;;;;7.30;99.90;;;;;;21089046;28;20018;-81
2023/11/16 17:10:59;;;;;;;;;;;7.30;99.90;;;;;;21089153;28;19916;-80
2023/11/16 17:21:03;;;;;;;;;;;7.40;99.90;;;;;;21088706;28;19920;-79
2023/11/16 17:31:04;;;;;;;;;;;7.40;99.90;;;;;;21086600;28;19913;-80
2023/11/16 17:41:05;;;;;;;;;;;7.40;99.90;;;;;;21084417;28;20049;-81
2023/11/16 17:51:06;;;;;;;;;;;7.40;99.90;;;;;;21085534;28;19920;-81
2023/11/16 18:01:07;;;;;;;;;;;7.40;99.90;;;;;;21083637;28;20014;-81
2023/11/16 18:11:08;;;;;;;;;;;7.40;99.90;;;;;;21086599;28;19916;-81
2023/11/16 18:21:09;;;;;;;;;;;7.40;99.90;;;;;;21072946;28;20329;-81
2023/11/16 18:31:11;;;;;;;;;;;7.40;99.90;;;;;;21083502;28;20291;-81
2023/11/16 18:41:12;;;;;;;;;;;7.60;99.90;;;;;;21083233;28;19966;-80
2023/11/16 18:51:12;;;;;;;;;;;7.60;99.90;;;;;;21082909;28;20367;-81
2023/11/16 19:01:15;;;;;;;;;;;7.50;99.90;;;;;;21086577;28;19957;-81
2023/11/16 19:11:16;;;;;;;;;;;7.60;99.90;;;;;;21097927;28;19912;-82
2023/11/16 19:21:21;;;;;;;;;;;8.00;99.90;;;;;;21100880;28;19935;-81
2023/11/16 19:31:22;;;;;;;;;;;8.50;99.90;;;;;;21099864;28;19912;-81
2023/11/16 19:41:23;;;;;;;;;;;8.50;99.90;;;;;;21079824;28;19916;-80
2023/11/16 19:51:24;;;;;;;;;;;8.40;99.90;;;;;;21097516;28;19918;-82
2023/11/16 20:01:25;;;;;;;;;;;8.80;99.90;;;;;;21081394;28;19916;-82
2023/11/16 20:11:29;;;;;;;;;;;9.40;99.90;;;;;;21093255;28;20011;-82
2023/11/16 20:21:30;;;;;;;;;;;9.70;99.90;;;;;;21094683;28;19916;-82
2023/11/16 20:31:34;;;;;;;;;;;10.10;99.90;;;;;;21095398;28;19934;-83
2023/11/16 20:41:35;;;;;;;;;;;11.10;99.90;;;;;;21094563;28;20428;-81
2023/11/16 20:51:35;;;;;;;;;;;11.50;99.90;;;;;;21090341;28;20383;-83
2023/11/16 21:01:36;;;;;;;;;;;12.10;99.90;;;;;;21089995;28;20525;-82
2023/11/16 21:11:37;;;;;;;;;;;12.30;99.90;;;;;;21069808;28;19959;-81
2023/11/16 21:21:38;;;;;;;;;;;12.70;99.90;;;;;;21089460;28;19920;-82
2023/11/16 21:31:39;;;;;;;;;;;12.40;99.90;;;;;;21088553;28;19912;-83
2023/11/16 21:41:42;;;;;;;;;;;11.60;99.90;;;;;;21086163;28;19915;-82
2023/11/16 21:51:43;;;;;;;;;;;11.40;99.90;;;;;;21084517;28;19919;-81
2023/11/16 22:01:45;;;;;;;;;;;11.30;99.90;;;;;;21083441;28;19951;-80
2023/11/16 22:11:45;;;;;;;;;;;11.10;99.90;;;;;;21064054;28;19942;-81
2023/11/16 22:21:46;;;;;;;;;;;11.00;99.90;;;;;;21081201;28;19916;-80
2023/11/16 22:31:47;;;;;;;;;;;11.10;99.90;;;;;;21080324;28;19916;-81
2023/11/16 22:41:47;;;;;;;;;;;11.10;99.90;;;;;;21095989;28;20399;-80
2023/11/16 22:51:48;;;;;;;;;;;10.70;99.90;;;;;;21100642;28;19912;-81
2023/11/16 23:01:49;;;;;;;;;;;10.40;99.90;;;;;;21101369;28;20294;-80
2023/11/16 23:11:50;;;;;;;;;;;10.30;99.90;;;;;;21103911;28;19957;-81
2023/11/16 23:21:51;;;;;;;;;;;10.10;99.90;;;;;;21093831;28;19987;-81
2023/11/16 23:31:52;;;;;;;;;;;9.70;99.90;;;;;;21096064;28;19913;-83
2023/11/16 23:41:52;;;;;;;;;;;9.40;99.90;;;;;;21094842;28;20282;-82
2023/11/16 23:51:53;;;;;;;;;;;9.20;99.90;;;;;;21095172;28;20387;-82
